Time;durP1;ratioP1;P1;durP2;ratioP2;P2;SDS_P1;SDS_P2;PMS_P1;PMS_P2;Temp;Humidity;BMP_temperature;BMP_pressure;BME280_temperature;BME280_humidity;BME280_pressure;Samples;Min_cycle;Max_cycle;Signal;HPM_P1;HPM_P2
2023/05/14 00:00:28;;;;;;;7.13;5.95;;;13.20;99.90;;;;;;2074894;28;20030;-72
2023/05/14 00:01:28;;;;;;;6.78;6.13;;;13.20;99.90;;;;;;2073745;28;20045;-72
2023/05/14 00:02:29;;;;;;;7.70;6.18;;;13.20;99.90;;;;;;2077293;28;20029;-72
2023/05/14 00:03:29;;;;;;;8.30;6.97;;;13.10;99.90;;;;;;2078018;28;20596;-72
2023/05/14 00:04:30;;;;;;;7.60;6.68;;;13.20;99.90;;;;;;2074402;28;20057;-72
2023/05/14 00:05:30;;;;;;;7.40;6.80;;;13.20;99.90;;;;;;2075299;28;20501;-72
2023/05/14 00:06:31;;;;;;;6.65;6.10;;;13.20;99.90;;;;;;2074896;28;20030;-72
2023/05/14 00:07:32;;;;;;;9.65;6.18;;;13.10;99.90;;;;;;2074942;28;20052;-72
2023/05/14 00:08:32;;;;;;;7.65;6.90;;;13.10;99.90;;;;;;2074013;28;20076;-72
2023/05/14 00:09:34;;;;;;;8.90;6.85;;;13.10;99.90;;;;;;2073394;28;20075;-72
2023/05/14 00:10:34;;;;;;;10.90;6.80;;;13.10;99.90;;;;;;2074128;28;20080;-72
2023/05/14 00:11:35;;;;;;;8.85;6.50;;;13.00;99.90;;;;;;2075375;28;20792;-72
2023/05/14 00:12:35;;;;;;;7.80;7.07;;;13.00;99.90;;;;;;2074783;28;20049;-72
2023/05/14 00:13:36;;;;;;;7.05;6.13;;;13.00;99.90;;;;;;2074100;28;20053;-72
2023/05/14 00:14:36;;;;;;;8.07;7.38;;;13.00;99.90;;;;;;2075034;28;20026;-72
2023/05/14 00:15:37;;;;;;;9.13;6.90;;;13.00;99.90;;;;;;2074640;28;20054;-72
2023/05/14 00:16:37;;;;;;;7.32;6.55;;;13.00;99.90;;;;;;2075366;28;20030;-72
2023/05/14 00:17:38;;;;;;;7.15;6.53;;;12.90;99.90;;;;;;2073890;28;20026;-72
2023/05/14 00:18:39;;;;;;;8.88;8.13;;;12.90;99.90;;;;;;2076251;28;20102;-72
2023/05/14 00:19:40;;;;;;;8.13;7.38;;;12.90;99.90;;;;;;2075081;28;20035;-72
2023/05/14 00:20:41;;;;;;;8.35;7.57;;;12.90;99.90;;;;;;2074479;28;20037;-72
2023/05/14 00:21:41;;;;;;;8.15;7.35;;;12.90;99.90;;;;;;2074793;28;20034;-72
2023/05/14 00:22:42;;;;;;;8.32;6.57;;;12.90;99.90;;;;;;2074416;28;20096;-72
2023/05/14 00:23:43;;;;;;;9.55;7.72;;;12.90;99.90;;;;;;2073423;28;20036;-72
2023/05/14 00:24:43;;;;;;;9.07;7.10;;;12.90;99.90;;;;;;2073132;28;20037;-72
2023/05/14 00:25:44;;;;;;;9.05;8.15;;;12.90;99.90;;;;;;2074099;28;20045;-72
2023/05/14 00:26:44;;;;;;;7.50;6.80;;;12.90;99.90;;;;;;2077186;28;20052;-72
2023/05/14 00:27:45;;;;;;;7.55;6.85;;;12.80;99.90;;;;;;2069877;28;20121;-72
2023/05/14 00:28:45;;;;;;;7.40;6.80;;;12.80;99.90;;;;;;2075725;28;20025;-72
2023/05/14 00:29:46;;;;;;;7.85;7.03;;;12.80;99.90;;;;;;2073484;28;20020;-72
2023/05/14 00:30:46;;;;;;;7.00;6.40;;;12.80;99.90;;;;;;2072121;28;20393;-72
2023/05/14 00:31:47;;;;;;;9.55;6.70;;;12.80;99.90;;;;;;2074599;28;20382;-72
2023/05/14 00:32:47;;;;;;;9.45;7.10;;;12.80;99.90;;;;;;2073843;28;20022;-72
2023/05/14 00:33:48;;;;;;;7.20;6.50;;;12.80;99.90;;;;;;2088639;28;20044;-72
2023/05/14 00:34:48;;;;;;;8.40;6.97;;;12.80;99.90;;;;;;2088248;28;20029;-73
2023/05/14 00:35:50;;;;;;;10.52;6.93;;;12.70;99.90;;;;;;2075318;28;20654;-72
2023/05/14 00:36:51;;;;;;;7.38;6.68;;;12.70;99.90;;;;;;2073668;28;20056;-72
2023/05/14 00:37:51;;;;;;;9.95;7.57;;;12.70;99.90;;;;;;2074426;28;20033;-72
2023/05/14 00:38:52;;;;;;;7.68;6.53;;;12.70;99.90;;;;;;2075870;28;20060;-72
2023/05/14 00:39:52;;;;;;;7.30;6.47;;;12.70;99.90;;;;;;2071915;28;20026;-72
2023/05/14 00:40:53;;;;;;;8.60;7.65;;;12.70;99.90;;;;;;2072952;28;20038;-72
2023/05/14 00:41:53;;;;;;;7.80;7.00;;;12.60;99.90;;;;;;2073547;28;20037;-72
2023/05/14 00:42:54;;;;;;;9.40;6.78;;;12.60;99.90;;;;;;2073051;28;20045;-73
2023/05/14 00:43:55;;;;;;;8.35;7.53;;;12.60;99.90;;;;;;2072922;28;20041;-73
2023/05/14 00:44:55;;;;;;;9.25;7.68;;;12.60;99.90;;;;;;2073095;28;20036;-73
2023/05/14 00:45:56;;;;;;;7.97;7.15;;;12.60;99.90;;;;;;2073096;28;20486;-73
2023/05/14 00:46:58;;;;;;;7.70;7.00;;;12.60;99.90;;;;;;2076177;28;20114;-72
2023/05/14 00:47:58;;;;;;;7.97;7.15;;;12.60;99.90;;;;;;2073378;28;20037;-72
2023/05/14 00:48:59;;;;;;;7.60;6.90;;;12.60;99.90;;;;;;2072838;28;20029;-72
2023/05/14 00:50:01;;;;;;;7.00;6.30;;;12.60;99.90;;;;;;2077012;28;20021;-72
2023/05/14 00:51:01;;;;;;;9.45;7.65;;;12.50;99.90;;;;;;2075986;28;20032;-72
2023/05/14 00:52:02;;;;;;;8.20;7.00;;;12.50;99.90;;;;;;2074455;28;20033;-72
2023/05/14 00:53:08;;;;;;;8.75;7.85;;;12.50;99.90;;;;;;2073613;28;20067;-72
2023/05/14 00:54:10;;;;;;;8.00;6.57;;;12.50;99.90;;;;;;2076983;28;20017;-72
2023/05/14 00:55:15;;;;;;;8.48;7.55;;;12.50;99.90;;;;;;2076841;28;20025;-72
2023/05/14 00:56:15;;;;;;;8.13;7.32;;;12.50;99.90;;;;;;2074035;28;20029;-72
2023/05/14 00:57:17;;;;;;;7.82;7.07;;;12.40;99.90;;;;;;2073637;28;20029;-72
2023/05/14 00:58:18;;;;;;;8.10;7.30;;;12.50;99.90;;;;;;2073481;28;20382;-72
2023/05/14 00:59:19;;;;;;;8.10;7.20;;;12.50;99.90;;;;;;2072534;28;20029;-72
2023/05/14 01:00:19;;;;;;;7.85;6.57;;;12.40;99.90;;;;;;2072648;28;20029;-72
2023/05/14 01:01:20;;;;;;;7.25;6.55;;;12.40;99.90;;;;;;2074145;28;20026;-72
2023/05/14 01:02:20;;;;;;;8.32;7.53;;;12.40;99.90;;;;;;2073891;28;20025;-72
2023/05/14 01:03:21;;;;;;;7.15;6.55;;;12.40;99.90;;;;;;2075733;28;20030;-72
2023/05/14 01:04:22;;;;;;;8.27;7.18;;;12.40;99.90;;;;;;2074221;28;20087;-72
2023/05/14 01:05:26;;;;;;;7.68;6.97;;;12.40;99.90;;;;;;2074142;28;20029;-72
2023/05/14 01:06:45;;;;;;;7.57;6.78;;;12.40;99.90;;;;;;2073064;28;20056;-72
2023/05/14 01:08:21;;;;;;;8.80;8.00;;;12.30;99.90;;;;;;2074998;28;20034;-72
2023/05/14 01:10:00;;;;;;;8.27;7.40;;;12.30;99.90;;;;;;2074374;28;20288;-72
2023/05/14 01:11:21;;;;;;;8.43;7.55;;;12.20;99.90;;;;;;2079305;28;20562;-72
2023/05/14 01:12:24;;;;;;;7.25;6.53;;;12.20;99.90;;;;;;2077779;28;20353;-72
2023/05/14 01:14:09;;;;;;;8.95;6.75;;;12.20;99.90;;;;;;2073333;28;20445;-72
2023/05/14 01:15:29;;;;;;;7.90;6.97;;;12.20;99.90;;;;;;2087961;28;20174;-72
2023/05/14 01:16:31;;;;;;;;;;;12.10;99.90;;;;;;2075991;28;20474;-72
2023/05/14 01:17:37;;;;;;;8.75;7.20;;;12.00;99.90;;;;;;2074774;28;19971;-72
2023/05/14 01:18:41;;;;;;;8.63;7.53;;;12.10;99.90;;;;;;2074680;28;20028;-72
2023/05/14 01:19:44;;;;;;;9.25;7.63;;;12.10;99.90;;;;;;2074848;28;20501;-72
2023/05/14 01:20:45;;;;;;;8.10;7.28;;;12.10;99.90;;;;;;2074222;28;20038;-72
2023/05/14 01:21:45;;;;;;;8.90;7.65;;;12.10;99.90;;;;;;2073726;28;20607;-73
2023/05/14 01:22:46;;;;;;;7.57;6.75;;;12.10;99.90;;;;;;2072529;28;20030;-72
2023/05/14 01:23:46;;;;;;;8.05;7.25;;;12.10;99.90;;;;;;2073324;28;20030;-73
2023/05/14 01:24:47;;;;;;;8.43;7.63;;;12.00;99.90;;;;;;2073425;28;20033;-73
2023/05/14 01:25:48;;;;;;;10.93;8.10;;;12.10;99.90;;;;;;2076511;28;20029;-73
2023/05/14 01:26:48;;;;;;;9.63;8.73;;;12.10;99.90;;;;;;2075789;28;20556;-73
2023/05/14 01:27:56;;;;;;;13.63;9.43;;;12.10;99.90;;;;;;2075477;28;20034;-73
2023/05/14 01:29:05;;;;;;;8.90;8.10;;;12.00;99.90;;;;;;2077077;28;20109;-72
2023/05/14 01:30:20;;;;;;;9.13;8.32;;;12.00;99.90;;;;;;2074710;28;20034;-72
2023/05/14 01:31:26;;;;;;;7.80;7.10;;;12.00;99.90;;;;;;2074156;28;20014;-72
2023/05/14 01:32:28;;;;;;;8.73;7.82;;;12.00;99.90;;;;;;2075561;28;20029;-72
2023/05/14 01:33:30;;;;;;;9.00;8.18;;;12.00;99.90;;;;;;2073678;28;20021;-72
2023/05/14 01:34:31;;;;;;;10.38;9.20;;;12.00;99.90;;;;;;2076123;28;20627;-72
2023/05/14 01:35:32;;;;;;;9.77;8.77;;;12.00;99.90;;;;;;2077040;28;20064;-72
2023/05/14 01:36:34;;;;;;;10.35;9.18;;;12.00;99.90;;;;;;2075107;28;20033;-72
2023/05/14 01:37:36;;;;;;;10.70;8.85;;;12.00;99.90;;;;;;2075596;28;20498;-72
2023/05/14 01:38:38;;;;;;;9.45;8.35;;;11.90;99.90;;;;;;2076025;28;20688;-72
2023/05/14 01:39:40;;;;;;;8.77;7.93;;;12.00;99.90;;;;;;2074035;28;20040;-72
2023/05/14 01:40:44;;;;;;;12.23;7.75;;;11.90;99.90;;;;;;2075246;28;20041;-72
2023/05/14 01:41:46;;;;;;;10.35;9.00;;;12.00;99.90;;;;;;2075389;28;20029;-72
2023/05/14 01:42:47;;;;;;;10.90;8.90;;;11.90;99.90;;;;;;2075563;28;20025;-72
2023/05/14 01:43:48;;;;;;;9.20;8.25;;;11.90;99.90;;;;;;2075962;28;20022;-72
2023/05/14 01:44:48;;;;;;;10.48;9.23;;;11.90;99.90;;;;;;2075198;28;20021;-72
2023/05/14 01:45:49;;;;;;;10.70;9.60;;;11.90;99.90;;;;;;2074849;28;20030;-72
2023/05/14 01:46:49;;;;;;;10.02;8.43;;;11.90;99.90;;;;;;2077831;28;20021;-72
2023/05/14 01:47:50;;;;;;;8.02;7.40;;;11.90;99.90;;;;;;2074480;28;20501;-72
2023/05/14 01:48:51;;;;;;;9.75;8.85;;;11.90;99.90;;;;;;2076527;28;20767;-72
2023/05/14 01:49:51;;;;;;;10.23;7.78;;;11.90;99.90;;;;;;2074515;28;20044;-73
2023/05/14 01:50:52;;;;;;;9.68;8.75;;;11.90;99.90;;;;;;2074110;28;20057;-73
2023/05/14 01:51:52;;;;;;;9.07;8.25;;;11.90;99.90;;;;;;2077188;28;20022;-72
2023/05/14 01:52:55;;;;;;;11.18;8.85;;;11.90;99.90;;;;;;2075085;28;20121;-72
2023/05/14 01:53:55;;;;;;;9.70;8.80;;;11.90;99.90;;;;;;2076728;28;20030;-72
2023/05/14 01:54:57;;;;;;;8.45;7.75;;;11.90;99.90;;;;;;2075675;28;20021;-72
2023/05/14 01:55:57;;;;;;;10.18;9.15;;;11.90;99.90;;;;;;2090343;28;20040;-72
2023/05/14 01:56:58;;;;;;;9.00;8.10;;;11.90;99.90;;;;;;2090454;28;20029;-72
2023/05/14 01:57:58;;;;;;;10.60;8.50;;;11.90;99.90;;;;;;2075945;28;20079;-72
2023/05/14 01:58:59;;;;;;;9.35;8.32;;;11.90;99.90;;;;;;2073514;28;20559;-72
2023/05/14 02:00:00;;;;;;;10.43;8.95;;;11.80;99.90;;;;;;2076277;28;20037;-72
2023/05/14 02:01:00;;;;;;;9.55;8.75;;;11.80;99.90;;;;;;2074412;28;20026;-72
2023/05/14 02:02:01;;;;;;;9.80;8.48;;;11.80;99.90;;;;;;2077154;28;20444;-72
2023/05/14 02:03:01;;;;;;;9.50;8.48;;;11.80;99.90;;;;;;2077116;28;20029;-72
2023/05/14 02:04:02;;;;;;;9.68;8.75;;;11.80;99.90;;;;;;2078574;28;20033;-72
2023/05/14 02:05:03;;;;;;;8.80;8.07;;;11.80;99.90;;;;;;2075101;28;20034;-72
2023/05/14 02:06:03;;;;;;;9.50;8.10;;;11.80;99.90;;;;;;2077767;28;20029;-72
2023/05/14 02:07:04;;;;;;;9.00;7.82;;;11.80;99.90;;;;;;2076626;28;20501;-72
2023/05/14 02:08:05;;;;;;;8.60;7.30;;;11.80;99.90;;;;;;2075732;28;20029;-72
2023/05/14 02:09:06;;;;;;;10.18;9.20;;;11.80;99.90;;;;;;2076301;28;20030;-72
2023/05/14 02:10:07;;;;;;;8.13;7.32;;;11.80;99.90;;;;;;2075880;28;20601;-72
2023/05/14 02:11:08;;;;;;;9.15;8.32;;;11.70;99.90;;;;;;2078620;28;20032;-72
2023/05/14 02:12:10;;;;;;;10.70;8.23;;;11.80;99.90;;;;;;2079058;28;20028;-72
2023/05/14 02:13:11;;;;;;;9.63;8.60;;;11.70;99.90;;;;;;2083644;28;20013;-72
2023/05/14 02:14:11;;;;;;;10.13;9.10;;;11.70;99.90;;;;;;2083686;28;20109;-72
2023/05/14 02:15:12;;;;;;;10.07;9.07;;;11.70;99.90;;;;;;2074446;28;20112;-72
2023/05/14 02:16:12;;;;;;;9.82;8.70;;;11.70;99.90;;;;;;2075072;28;20032;-72
2023/05/14 02:17:15;;;;;;;9.13;8.30;;;11.70;99.90;;;;;;2074545;28;20033;-72
2023/05/14 02:18:16;;;;;;;11.77;9.25;;;11.70;99.90;;;;;;2076723;28;20488;-72
2023/05/14 02:19:16;;;;;;;11.65;8.68;;;11.70;99.90;;;;;;2073364;28;20021;-72
2023/05/14 02:20:17;;;;;;;9.60;8.63;;;11.70;99.90;;;;;;2075818;28;20106;-72
2023/05/14 02:21:17;;;;;;;8.32;7.50;;;11.70;99.90;;;;;;2075252;28;20108;-72
2023/05/14 02:22:18;;;;;;;9.27;8.38;;;11.60;99.90;;;;;;2076611;28;20036;-73
2023/05/14 02:23:18;;;;;;;10.88;9.38;;;11.60;99.90;;;;;;2076520;28;20033;-72
2023/05/14 02:24:19;;;;;;;9.27;8.38;;;11.60;99.90;;;;;;2073348;28;20493;-72
2023/05/14 02:25:20;;;;;;;9.07;8.20;;;11.60;99.90;;;;;;2075391;28;20109;-72
2023/05/14 02:26:21;;;;;;;10.32;8.50;;;11.60;99.90;;;;;;2073342;28;20038;-72
2023/05/14 02:27:21;;;;;;;11.10;9.52;;;11.60;99.90;;;;;;2076014;28;20105;-72
2023/05/14 02:28:22;;;;;;;9.98;9.10;;;11.60;99.90;;;;;;2076324;28;20064;-72
2023/05/14 02:29:22;;;;;;;10.15;9.15;;;11.60;99.90;;;;;;2075215;28;20789;-72
2023/05/14 02:30:23;;;;;;;11.65;10.45;;;11.60;99.90;;;;;;2072484;28;20118;-72
2023/05/14 02:31:23;;;;;;;9.50;8.60;;;11.50;99.90;;;;;;2075942;28;20028;-72
2023/05/14 02:32:24;;;;;;;9.25;8.40;;;11.50;99.90;;;;;;2076404;28;20360;-72
2023/05/14 02:33:25;;;;;;;9.73;8.80;;;11.50;99.90;;;;;;2076000;28;20076;-72
2023/05/14 02:34:25;;;;;;;10.63;9.52;;;11.50;99.90;;;;;;2076136;28;20021;-72
2023/05/14 02:35:26;;;;;;;10.60;9.50;;;11.50;99.90;;;;;;2091606;28;20621;-73
2023/05/14 02:36:27;;;;;;;11.15;9.93;;;11.50;99.90;;;;;;2088363;28;20032;-72
2023/05/14 02:37:27;;;;;;;10.52;8.80;;;11.50;99.90;;;;;;2077193;28;20017;-72
2023/05/14 02:38:28;;;;;;;10.90;9.45;;;11.50;99.90;;;;;;2073982;28;20105;-72
2023/05/14 02:39:28;;;;;;;9.73;8.77;;;11.50;99.90;;;;;;2075533;28;20028;-72
2023/05/14 02:40:29;;;;;;;11.68;9.80;;;11.50;99.90;;;;;;2072744;28;20030;-72
2023/05/14 02:41:29;;;;;;;10.60;9.32;;;11.50;99.90;;;;;;2075591;28;20029;-72
2023/05/14 02:42:30;;;;;;;10.30;9.38;;;11.40;99.90;;;;;;2077362;28;20025;-72
2023/05/14 02:43:31;;;;;;;9.90;8.80;;;11.40;99.90;;;;;;2075535;28;20116;-72
2023/05/14 02:44:31;;;;;;;9.30;8.40;;;11.40;99.90;;;;;;2075363;28;20026;-72
2023/05/14 02:45:32;;;;;;;10.20;9.27;;;11.40;99.90;;;;;;2076133;28;20050;-72
2023/05/14 02:46:32;;;;;;;10.75;9.00;;;11.40;99.90;;;;;;2077008;28;20025;-72
2023/05/14 02:47:33;;;;;;;9.52;8.65;;;11.40;99.90;;;;;;2074305;28;20792;-72
2023/05/14 02:48:33;;;;;;;9.88;8.93;;;11.40;99.90;;;;;;2077254;28;20049;-72
2023/05/14 02:49:34;;;;;;;10.02;9.23;;;11.40;99.90;;;;;;2079149;28;20056;-73
2023/05/14 02:50:34;;;;;;;10.48;9.50;;;11.40;99.90;;;;;;2075293;28;20024;-72
2023/05/14 02:51:35;;;;;;;10.88;9.88;;;11.40;99.90;;;;;;2074402;28;20026;-72
2023/05/14 02:52:36;;;;;;;10.75;9.77;;;11.40;99.90;;;;;;2076374;28;20033;-72
2023/05/14 02:53:36;;;;;;;9.48;8.57;;;11.30;99.90;;;;;;2074222;28;20045;-72
2023/05/14 02:54:37;;;;;;;11.85;9.05;;;11.30;99.90;;;;;;2076345;28;20057;-72
2023/05/14 02:55:37;;;;;;;11.25;8.05;;;11.30;99.90;;;;;;2074906;28;20025;-72
2023/05/14 02:56:38;;;;;;;10.02;9.13;;;11.30;99.90;;;;;;2075088;28;20032;-72
2023/05/14 02:57:38;;;;;;;8.77;7.97;;;11.30;99.90;;;;;;2076262;28;20041;-72
2023/05/14 02:58:39;;;;;;;10.27;8.90;;;11.30;99.90;;;;;;2075202;28;20505;-72
2023/05/14 02:59:39;;;;;;;9.93;9.02;;;11.30;99.90;;;;;;2076529;28;20032;-72
2023/05/14 03:00:40;;;;;;;11.98;10.55;;;11.30;99.90;;;;;;2073825;28;20022;-72
2023/05/14 03:01:40;;;;;;;9.80;8.80;;;11.30;99.90;;;;;;2076451;28;20044;-72
2023/05/14 03:02:42;;;;;;;10.23;9.32;;;11.30;99.90;;;;;;2074811;28;20469;-72
2023/05/14 03:03:42;;;;;;;10.20;9.20;;;11.30;99.90;;;;;;2074520;28;20548;-72
2023/05/14 03:04:43;;;;;;;10.93;8.70;;;11.30;99.90;;;;;;2076880;28;20417;-72
2023/05/14 03:05:44;;;;;;;10.50;9.40;;;11.30;99.90;;;;;;2074783;28;20105;-72
2023/05/14 03:06:44;;;;;;;10.00;9.15;;;11.20;99.90;;;;;;2073486;28;20532;-72
2023/05/14 03:07:45;;;;;;;9.77;8.82;;;11.30;99.90;;;;;;2073851;28;20088;-72
2023/05/14 03:08:45;;;;;;;10.60;9.25;;;11.30;99.90;;;;;;2073146;28;20716;-72
2023/05/14 03:09:46;;;;;;;9.88;8.88;;;11.20;99.90;;;;;;2074678;28;20088;-72
2023/05/14 03:10:46;;;;;;;11.10;9.95;;;11.30;99.90;;;;;;2074793;28;20152;-73
2023/05/14 03:11:48;;;;;;;11.73;10.63;;;11.20;99.90;;;;;;2075680;28;20088;-72
2023/05/14 03:12:48;;;;;;;10.40;9.40;;;11.20;99.90;;;;;;2076188;28;20025;-72
2023/05/14 03:13:49;;;;;;;9.30;8.20;;;11.20;99.90;;;;;;2074244;28;20021;-72
2023/05/14 03:14:50;;;;;;;10.55;8.18;;;11.20;99.90;;;;;;2077418;28;20548;-72
2023/05/14 03:15:53;;;;;;;10.27;9.40;;;11.20;99.90;;;;;;2075445;28;20580;-72
2023/05/14 03:16:54;;;;;;;10.88;9.88;;;11.20;99.90;;;;;;2077524;28;20057;-72
2023/05/14 03:17:54;;;;;;;10.52;9.52;;;11.20;99.90;;;;;;2078686;28;20040;-72
2023/05/14 03:18:55;;;;;;;11.23;10.13;;;11.20;99.90;;;;;;2074068;28;20104;-72
2023/05/14 03:19:55;;;;;;;9.77;8.75;;;11.20;99.90;;;;;;2073496;28;20532;-73
2023/05/14 03:20:56;;;;;;;10.45;9.55;;;11.10;99.90;;;;;;2074604;28;20059;-72
2023/05/14 03:21:56;;;;;;;10.20;9.20;;;11.20;99.90;;;;;;2075134;28;20029;-72
2023/05/14 03:22:57;;;;;;;10.55;9.18;;;11.10;99.90;;;;;;2076762;28;20037;-72
2023/05/14 03:23:58;;;;;;;11.13;10.02;;;11.10;99.90;;;;;;2066013;28;20399;-72
2023/05/14 03:24:58;;;;;;;10.90;9.90;;;11.10;99.90;;;;;;2075187;28;20109;-72
2023/05/14 03:25:59;;;;;;;9.73;8.82;;;11.10;99.90;;;;;;2075606;28;20033;-72
2023/05/14 03:26:59;;;;;;;11.40;8.48;;;11.10;99.90;;;;;;2074466;28;20108;-72
2023/05/14 03:28:00;;;;;;;10.48;9.57;;;11.10;99.90;;;;;;2075605;28;20581;-72
2023/05/14 03:29:01;;;;;;;10.80;9.85;;;11.10;99.90;;;;;;2074509;28;20025;-72
2023/05/14 03:30:02;;;;;;;10.27;9.27;;;11.10;99.90;;;;;;2074606;28;20042;-72
2023/05/14 03:31:02;;;;;;;10.27;9.38;;;11.10;99.90;;;;;;2073941;28;20025;-72
2023/05/14 03:32:03;;;;;;;11.20;10.10;;;11.10;99.90;;;;;;2073785;28;20120;-72
2023/05/14 03:33:04;;;;;;;10.50;9.38;;;11.10;99.90;;;;;;2074689;28;20067;-72
2023/05/14 03:34:04;;;;;;;10.57;9.52;;;11.10;99.90;;;;;;2075336;28;20021;-72
2023/05/14 03:35:05;;;;;;;10.13;9.13;;;11.10;99.90;;;;;;2073288;28;20367;-72
2023/05/14 03:36:06;;;;;;;11.88;10.63;;;11.10;99.90;;;;;;2074914;28;20500;-72
2023/05/14 03:37:07;;;;;;;11.35;10.35;;;11.00;99.90;;;;;;2074565;28;20397;-72
2023/05/14 03:38:07;;;;;;;11.13;10.13;;;11.00;99.90;;;;;;2076096;28;20034;-72
2023/05/14 03:39:08;;;;;;;10.98;9.98;;;11.00;99.90;;;;;;2075882;28;20109;-72
2023/05/14 03:40:09;;;;;;;11.25;10.15;;;11.00;99.90;;;;;;2072280;28;20022;-72
2023/05/14 03:41:10;;;;;;;11.43;10.13;;;11.00;99.90;;;;;;2079240;28;20119;-73
2023/05/14 03:42:10;;;;;;;11.85;10.85;;;11.00;99.90;;;;;;2077181;28;20033;-72
2023/05/14 03:43:11;;;;;;;10.20;9.20;;;11.00;99.90;;;;;;2078982;28;20041;-72
2023/05/14 03:44:12;;;;;;;9.95;8.88;;;11.00;99.90;;;;;;2077891;28;20100;-72
2023/05/14 03:45:12;;;;;;;11.63;10.43;;;11.00;99.90;;;;;;2074343;28;20036;-72
2023/05/14 03:46:13;;;;;;;13.30;9.40;;;11.00;99.90;;;;;;2075677;28;20037;-72
2023/05/14 03:47:13;;;;;;;10.13;8.75;;;11.00;99.90;;;;;;2073829;28;20045;-72
2023/05/14 03:48:14;;;;;;;10.13;9.30;;;11.00;99.90;;;;;;2074305;28;20528;-72
2023/05/14 03:49:14;;;;;;;12.13;10.82;;;11.00;99.90;;;;;;2071959;28;20022;-72
2023/05/14 03:50:15;;;;;;;11.95;10.95;;;11.00;99.90;;;;;;2074319;28;20032;-72
2023/05/14 03:51:15;;;;;;;13.38;11.45;;;11.00;99.90;;;;;;2074790;28;20080;-72
2023/05/14 03:52:16;;;;;;;11.90;10.75;;;11.00;99.90;;;;;;2072738;28;20212;-72
2023/05/14 03:53:16;;;;;;;11.23;10.20;;;11.00;99.90;;;;;;2074530;28;20717;-72
2023/05/14 03:54:17;;;;;;;11.45;10.30;;;11.00;99.90;;;;;;2068068;28;20092;-72
2023/05/14 03:55:18;;;;;;;12.23;10.90;;;11.00;99.90;;;;;;2068061;28;20111;-72
2023/05/14 03:56:19;;;;;;;11.52;10.23;;;11.00;99.90;;;;;;2075611;28;20033;-72
2023/05/14 03:57:20;;;;;;;12.45;11.10;;;11.00;99.90;;;;;;2087626;28;20036;-72
2023/05/14 03:58:20;;;;;;;12.63;11.48;;;11.00;99.90;;;;;;2090078;28;20037;-72
2023/05/14 03:59:21;;;;;;;12.40;10.52;;;11.00;99.90;;;;;;2073382;28;20052;-72
2023/05/14 04:00:21;;;;;;;10.60;9.57;;;11.00;99.90;;;;;;2075114;28;20036;-72
2023/05/14 04:01:22;;;;;;;11.90;10.23;;;11.00;99.90;;;;;;2077337;28;20040;-72
2023/05/14 04:02:23;;;;;;;10.68;9.68;;;11.00;99.90;;;;;;2075719;28;20533;-72
2023/05/14 04:03:23;;;;;;;11.70;10.55;;;11.00;99.90;;;;;;2074157;28;20104;-72
2023/05/14 04:04:24;;;;;;;12.55;11.43;;;11.00;99.90;;;;;;2072645;28;20041;-72
2023/05/14 04:05:24;;;;;;;12.05;10.48;;;11.00;99.90;;;;;;2076823;28;20490;-72
2023/05/14 04:06:25;;;;;;;10.57;9.65;;;11.00;99.90;;;;;;2069360;28;20026;-72
2023/05/14 04:07:25;;;;;;;12.20;10.60;;;11.00;99.90;;;;;;2075614;28;21010;-72
2023/05/14 04:08:26;;;;;;;11.07;10.15;;;11.00;99.90;;;;;;2075720;28;20017;-72
2023/05/14 04:09:26;;;;;;;12.32;11.02;;;11.00;99.90;;;;;;2075061;28;20023;-72
2023/05/14 04:10:27;;;;;;;12.13;10.80;;;11.00;99.90;;;;;;2073856;28;20034;-72
2023/05/14 04:11:28;;;;;;;11.63;10.38;;;11.00;99.90;;;;;;2075198;28;20025;-72
2023/05/14 04:12:28;;;;;;;11.88;10.68;;;11.10;99.90;;;;;;2073998;28;20066;-73
2023/05/14 04:13:29;;;;;;;12.18;10.00;;;11.00;99.90;;;;;;2074587;28;20030;-72
2023/05/14 04:14:29;;;;;;;10.88;9.82;;;11.10;99.90;;;;;;2073315;28;20022;-72
2023/05/14 04:15:30;;;;;;;14.38;10.07;;;11.10;99.90;;;;;;2073388;28;20081;-72
2023/05/14 04:16:31;;;;;;;12.20;11.10;;;11.10;99.90;;;;;;2074747;28;20086;-72
2023/05/14 04:17:31;;;;;;;11.30;10.15;;;11.00;99.90;;;;;;2075243;28;20110;-72
2023/05/14 04:18:34;;;;;;;11.68;10.65;;;11.10;99.90;;;;;;2075412;28;20080;-72
2023/05/14 04:19:34;;;;;;;12.10;10.90;;;11.10;99.90;;;;;;2076535;28;20361;-72
2023/05/14 04:20:35;;;;;;;13.15;11.70;;;11.10;99.90;;;;;;2071901;28;20064;-72
2023/05/14 04:21:36;;;;;;;13.02;11.90;;;11.10;99.90;;;;;;2074788;28;20060;-72
2023/05/14 04:22:36;;;;;;;11.25;10.35;;;11.10;99.90;;;;;;2073450;28;20029;-72
2023/05/14 04:23:37;;;;;;;11.50;10.40;;;11.10;99.90;;;;;;2069466;28;21018;-72
2023/05/14 04:24:37;;;;;;;12.30;11.27;;;11.10;99.90;;;;;;2072733;28;20021;-72
2023/05/14 04:25:38;;;;;;;13.00;11.63;;;11.10;99.90;;;;;;2073067;28;20541;-73
2023/05/14 04:26:38;;;;;;;11.02;10.13;;;11.20;99.90;;;;;;2074770;28;20087;-72
2023/05/14 04:27:39;;;;;;;11.77;10.68;;;11.20;99.90;;;;;;2073834;28;20048;-72
2023/05/14 04:28:39;;;;;;;12.02;10.82;;;11.20;99.90;;;;;;2074249;28;20018;-72
2023/05/14 04:29:40;;;;;;;11.48;10.32;;;11.20;99.90;;;;;;2073948;28;20033;-72
2023/05/14 04:30:40;;;;;;;11.93;10.73;;;11.20;99.90;;;;;;2074122;28;20057;-72
2023/05/14 04:31:41;;;;;;;11.73;10.63;;;11.20;99.90;;;;;;2074915;28;20026;-72
2023/05/14 04:32:43;;;;;;;11.30;10.20;;;11.20;99.90;;;;;;2074213;28;20037;-72
2023/05/14 04:33:43;;;;;;;12.32;11.20;;;11.20;99.90;;;;;;2074517;28;20036;-72
2023/05/14 04:34:45;;;;;;;12.45;11.27;;;11.20;99.90;;;;;;2076242;28;20032;-72
2023/05/14 04:35:46;;;;;;;13.52;12.23;;;11.30;99.90;;;;;;2073549;28;20018;-72
2023/05/14 04:36:46;;;;;;;12.43;11.25;;;11.30;99.90;;;;;;2075074;28;20045;-72
2023/05/14 04:37:48;;;;;;;12.27;11.18;;;11.30;99.90;;;;;;2073220;28;20038;-72
2023/05/14 04:38:48;;;;;;;12.52;11.40;;;11.40;99.90;;;;;;2072722;28;20018;-72
2023/05/14 04:39:49;;;;;;;13.25;11.95;;;11.40;99.90;;;;;;2072876;28;20421;-72
2023/05/14 04:40:49;;;;;;;11.52;9.98;;;11.40;99.90;;;;;;2073062;28;20088;-72
2023/05/14 04:41:50;;;;;;;11.38;10.18;;;11.50;99.90;;;;;;2073903;28;20117;-72
2023/05/14 04:42:50;;;;;;;11.48;10.50;;;11.50;99.90;;;;;;2073644;28;20032;-72
2023/05/14 04:43:55;;;;;;;11.98;10.93;;;11.50;99.90;;;;;;2074505;28;20069;-72
2023/05/14 04:44:55;;;;;;;12.85;11.75;;;11.50;99.90;;;;;;2072568;28;20112;-72
2023/05/14 04:45:56;;;;;;;16.15;12.00;;;11.60;99.90;;;;;;2074100;28;20029;-72
2023/05/14 04:46:56;;;;;;;12.57;10.93;;;11.60;99.90;;;;;;2074740;28;20143;-72
2023/05/14 04:47:57;;;;;;;10.77;9.77;;;11.60;99.90;;;;;;2074248;28;20081;-72
2023/05/14 04:48:57;;;;;;;13.57;12.30;;;11.70;99.90;;;;;;2075633;28;20030;-72
2023/05/14 04:49:58;;;;;;;16.20;12.85;;;11.70;99.90;;;;;;2074307;28;20026;-72
2023/05/14 04:50:58;;;;;;;13.98;12.77;;;11.80;99.90;;;;;;2074639;28;20037;-72
2023/05/14 04:52:00;;;;;;;13.38;12.07;;;11.80;99.90;;;;;;2075962;28;20036;-72
2023/05/14 04:53:02;;;;;;;12.77;11.52;;;11.90;99.90;;;;;;2075850;28;20018;-72
2023/05/14 04:54:02;;;;;;;12.95;11.75;;;12.00;99.90;;;;;;2074837;28;20116;-72
2023/05/14 04:55:03;;;;;;;12.82;11.52;;;12.00;99.90;;;;;;2075088;28;20029;-72
2023/05/14 04:56:04;;;;;;;15.07;12.50;;;12.10;99.90;;;;;;2073114;28;20829;-72
2023/05/14 04:57:05;;;;;;;12.32;11.23;;;12.20;99.90;;;;;;2078131;28;20022;-72
2023/05/14 04:58:06;;;;;;;14.10;11.48;;;12.20;99.90;;;;;;2078197;28;20505;-72
2023/05/14 04:59:06;;;;;;;11.82;10.73;;;12.30;99.90;;;;;;2072146;28;20497;-72
2023/05/14 05:00:08;;;;;;;12.73;11.60;;;12.40;99.90;;;;;;2074525;28;20064;-72
2023/05/14 05:01:09;;;;;;;11.95;10.88;;;12.50;99.90;;;;;;2075539;28;20060;-72
2023/05/14 05:02:10;;;;;;;13.15;10.82;;;12.60;99.90;;;;;;2075086;28;20044;-72
2023/05/14 05:03:10;;;;;;;12.55;11.35;;;12.60;99.90;;;;;;2075375;28;20053;-73
2023/05/14 05:04:11;;;;;;;12.82;11.18;;;12.80;99.90;;;;;;2074572;28;20033;-72
2023/05/14 05:05:11;;;;;;;17.35;13.77;;;12.80;99.90;;;;;;2074582;28;20124;-72
2023/05/14 05:06:12;;;;;;;13.85;12.63;;;13.00;99.90;;;;;;2073691;28;20034;-72
2023/05/14 05:07:13;;;;;;;14.15;12.65;;;13.10;99.90;;;;;;2073316;28;20041;-72
2023/05/14 05:08:13;;;;;;;15.85;12.45;;;13.10;99.90;;;;;;2072747;28;20026;-72
2023/05/14 05:09:15;;;;;;;13.55;12.35;;;13.20;99.90;;;;;;2073372;28;20049;-72
2023/05/14 05:10:15;;;;;;;14.68;13.30;;;13.30;99.90;;;;;;2074207;28;20020;-72
2023/05/14 05:11:16;;;;;;;13.32;12.05;;;13.40;99.90;;;;;;2073500;28;20125;-72
2023/05/14 05:12:16;;;;;;;13.90;12.50;;;13.50;99.90;;;;;;2073664;28;20931;-72
2023/05/14 05:13:17;;;;;;;12.95;11.68;;;13.60;99.90;;;;;;2074423;28;20025;-72
2023/05/14 05:14:17;;;;;;;12.38;11.27;;;13.60;99.90;;;;;;2073396;28;20101;-72
2023/05/14 05:15:18;;;;;;;13.52;12.05;;;13.70;99.90;;;;;;2074104;28;20033;-72
2023/05/14 05:16:18;;;;;;;12.60;11.30;;;13.80;99.90;;;;;;2074595;28;20393;-72